^^
Station Historical Data
 
Daily Summary for August 22, 2018 Units:  Metric    English   Both
« Previous Day
Next Day »
Daily Weekly Monthly Yearly Custom
  Current: High: Low: Average:
Temperature: 12.5 °C -17.8 °C 2.4 °C 5.2 °C
Dew Point: 0.9 °C -17.8 °C -8 °C -4.4 °C
Humidity: 45% Humidity% 37% 51%
Wind Speed: 4.7km/h 0km/h 0km/h 0.6km/h
Wind Gust: 14.5km/h 0km/h - -
WindENE - - ENE
Pressure: 1019.2 hPa 0 hPa 1015.8 hPa -
Precipitation: 0 mm      
Historical Graphs
 
 
Tabular Data for August 22, 2018
Time Temperature Dew Point Pressure Wind Wind Speed Wind Gust Humidity Rainfall Rate (Hourly) solar Conditions
-17.8 °C -17.8 °C 0 hPa Calm     Humidity% 0 mm SolarRadiationWatts/m^2 W/m2 Conditions
00:04 5.9 °C -7 °C 1016.8 hPa Calm     39% 0 mm 0.00 W/m2
00:09 5.8 °C -7.1 °C 1016.8 hPa Calm   1.6 km/h 39% 0 mm 0.00 W/m2
00:13 5.8 °C -7.1 °C 1016.8 hPa Calm     39% 0 mm 0.00 W/m2
00:19 5.8 °C -7.1 °C 1016.8 hPa Calm     39% 0 mm 0.00 W/m2
00:24 5.7 °C -7.2 °C 1016.8 hPa Calm     39% 0 mm 0.00 W/m2
00:29 5.7 °C -7.2 °C 1016.8 hPa Calm     39% 0 mm 0.00 W/m2
00:34 5.6 °C -7.3 °C 1016.8 hPa Calm     39% 0 mm 0.00 W/m2
00:39 5.5 °C -7.4 °C 1016.8 hPa Calm     39% 0 mm 0.00 W/m2
00:44 5.4 °C -7.5 °C 1016.8 hPa Calm     39% 0 mm 0.00 W/m2
00:49 5.4 °C -7.5 °C 1016.8 hPa Calm     39% 0 mm 0.00 W/m2
00:54 5.3 °C -7.5 °C 1016.8 hPa Calm     39% 0 mm 0.00 W/m2
00:59 5.3 °C -7.5 °C 1017.2 hPa Calm     39% 0 mm 0.00 W/m2
01:04 5.2 °C -7.6 °C 1016.8 hPa Calm     39% 0 mm 0.00 W/m2
01:09 5.2 °C -7.6 °C 1016.8 hPa Calm     39% 0 mm 0.00 W/m2
01:14 5.2 °C -7.6 °C 1016.8 hPa Calm     39% 0 mm 0.00 W/m2
01:19 5.2 °C -8 °C 1016.8 hPa Calm   8 km/h 38% 0 mm 0.00 W/m2
01:24 5.6 °C -8 °C 1016.8 hPa Calm     37% 0 mm 0.00 W/m2
01:29 5.8 °C -7.8 °C 1016.8 hPa Calm     37% 0 mm 0.00 W/m2
01:34 6.1 °C -7.5 °C 1016.5 hPa Calm     37% 0 mm 0.00 W/m2
01:39 6.2 °C -7.4 °C 1016.5 hPa Calm     37% 0 mm 0.00 W/m2
01:44 6.2 °C -7.4 °C 1016.5 hPa Calm     37% 0 mm 0.00 W/m2
01:48 6.2 °C -7.4 °C 1016.5 hPa Calm     37% 0 mm 0.00 W/m2
01:54 6.2 °C -7.4 °C 1016.5 hPa Calm     37% 0 mm 0.00 W/m2
01:59 6.1 °C -7.5 °C 1016.5 hPa Calm     37% 0 mm 0.00 W/m2
02:04 6 °C -7.3 °C 1016.5 hPa Calm     38% 0 mm 0.00 W/m2
02:09 5.8 °C -7.8 °C 1016.5 hPa Calm     37% 0 mm 0.00 W/m2
02:14 5.7 °C -7.5 °C 1016.1 hPa Calm     38% 0 mm 0.00 W/m2
02:19 5.6 °C -7.3 °C 1016.1 hPa Calm     39% 0 mm 0.00 W/m2
02:24 5.4 °C -7.5 °C 1016.1 hPa Calm     39% 0 mm 0.00 W/m2
02:28 5.3 °C -7.2 °C 1016.1 hPa Calm     40% 0 mm 0.00 W/m2
02:33 5.3 °C -7.2 °C 1016.1 hPa Calm     40% 0 mm 0.00 W/m2
02:39 5.2 °C -7 °C 1016.1 hPa Calm     41% 0 mm 0.00 W/m2
02:44 5.2 °C -7 °C 1016.1 hPa Calm     41% 0 mm 0.00 W/m2
02:49 5.2 °C -6.7 °C 1016.1 hPa Calm     42% 0 mm 0.00 W/m2
02:54 5.3 °C -6.6 °C 1016.1 hPa Calm     42% 0 mm 0.00 W/m2
02:59 5.4 °C -6.5 °C 1016.1 hPa Calm     42% 0 mm 0.00 W/m2
03:04 5.4 °C -6.2 °C 1016.1 hPa Calm     43% 0 mm 0.00 W/m2
03:09 5.4 °C -6.5 °C 1016.1 hPa Calm     42% 0 mm 0.00 W/m2
03:13 5.4 °C -6.2 °C 1016.1 hPa Calm     43% 0 mm 0.00 W/m2
03:19 5.3 °C -6.3 °C 1016.1 hPa Calm     43% 0 mm 0.00 W/m2
03:24 5.3 °C -6.3 °C 1016.1 hPa Calm     43% 0 mm 0.00 W/m2
03:29 5.2 °C -6.1 °C 1016.1 hPa Calm     44% 0 mm 0.00 W/m2
03:34 5.1 °C -5.9 °C 1016.1 hPa Calm     45% 0 mm 0.00 W/m2
03:39 4.9 °C -6 °C 1016.1 hPa Calm     45% 0 mm 0.00 W/m2
03:44 4.8 °C -5.8 °C 1016.1 hPa Calm     46% 0 mm 0.00 W/m2
03:49 4.7 °C -5.9 °C 1016.1 hPa Calm     46% 0 mm 0.00 W/m2
03:53 4.6 °C -5.7 °C 1016.1 hPa Calm     47% 0 mm 0.00 W/m2
03:59 4.5 °C -5.6 °C 1016.1 hPa Calm     48% 0 mm 0.00 W/m2
04:04 4.4 °C -5.7 °C 1016.1 hPa Calm     48% 0 mm 0.00 W/m2
04:09 4.4 °C -5.4 °C 1016.1 hPa Calm     49% 0 mm 0.00 W/m2
04:14 4.3 °C -5.2 °C 1016.1 hPa Calm     50% 0 mm 0.00 W/m2
04:19 4.3 °C -5.2 °C 1016.1 hPa Calm     50% 0 mm 0.00 W/m2
04:24 4.3 °C -4.9 °C 1016.1 hPa Calm     51% 0 mm 0.00 W/m2
04:29 4.4 °C -4.9 °C 1016.1 hPa Calm     51% 0 mm 0.00 W/m2
04:34 4.4 °C -4.6 °C 1016.1 hPa Calm     52% 0 mm 0.00 W/m2
04:39 4.4 °C -4.6 °C 1016.1 hPa Calm     52% 0 mm 0.00 W/m2
04:44 4.4 °C -4.6 °C 1016.1 hPa Calm     52% 0 mm 0.00 W/m2
04:49 4.4 °C -4.1 °C 1016.1 hPa Calm     54% 0 mm 0.00 W/m2
04:54 4.6 °C -3.9 °C 1015.8 hPa Calm     54% 0 mm 0.00 W/m2
04:59 4.6 °C -3.7 °C 1016.1 hPa Calm     55% 0 mm 0.00 W/m2
05:04 4.6 °C -3.7 °C 1016.1 hPa Calm     55% 0 mm 0.00 W/m2
05:09 4.7 °C -3.6 °C 1016.1 hPa Calm     55% 0 mm 0.00 W/m2
05:14 4.7 °C -3.8 °C 1016.1 hPa Calm     54% 0 mm 0.00 W/m2
05:19 4.7 °C -4.1 °C 1016.1 hPa Calm     53% 0 mm 0.00 W/m2
05:24 4.6 °C -4.2 °C 1016.1 hPa Calm     53% 0 mm 0.00 W/m2
05:29 4.4 °C -4.1 °C 1016.1 hPa Calm     54% 0 mm 0.00 W/m2
05:34 4.2 °C -4.3 °C 1016.1 hPa Calm     54% 0 mm 0.00 W/m2
05:39 4.1 °C -4.1 °C 1016.1 hPa Calm     55% 0 mm 0.00 W/m2
05:44 3.9 °C -4.1 °C 1016.1 hPa Calm     56% 0 mm 0.00 W/m2
05:49 3.8 °C -4.4 °C 1016.1 hPa Calm     55% 0 mm 0.00 W/m2
05:54 3.6 °C -4.6 °C 1016.1 hPa Calm     55% 0 mm 0.00 W/m2
05:58 3.4 °C -4.8 °C 1016.1 hPa Calm     55% 0 mm 0.00 W/m2
06:04 3.2 °C -4.7 °C 1016.1 hPa Calm     56% 0 mm 0.00 W/m2
06:09 3.1 °C -4.6 °C 1016.5 hPa Calm     57% 0 mm 0.00 W/m2
06:14 2.8 °C -4.6 °C 1016.5 hPa Calm     58% 0 mm 0.00 W/m2
06:19 2.7 °C -4.5 °C 1016.5 hPa Calm     59% 0 mm 0.00 W/m2
06:24 2.6 °C -4.8 °C 1016.8 hPa Calm     58% 0 mm 0.00 W/m2
06:29 2.4 °C -4.1 °C 1016.8 hPa Calm     62% 0 mm 0.00 W/m2
06:34 2.5 °C -3.4 °C 1016.8 hPa Calm   1.6 km/h 65% 0 mm 0.00 W/m2
06:38 2.6 °C -3.3 °C 1016.8 hPa Calm     65% 0 mm 0.00 W/m2
06:44 2.7 °C -3.2 °C 1017.2 hPa Calm     65% 0 mm 0.00 W/m2
06:49 2.8 °C -2.9 °C 1017.2 hPa Calm     66% 0 mm 0.00 W/m2
06:54 2.9 °C -2.8 °C 1017.2 hPa Calm     66% 0 mm 0.00 W/m2
06:59 3 °C -3.1 °C 1017.5 hPa Calm     64% 0 mm 0.00 W/m2
07:04 3.1 °C -2.6 °C 1017.5 hPa Calm     66% 0 mm 0.00 W/m2
07:09 3.1 °C -2.4 °C 1017.5 hPa Calm   1.6 km/h 67% 0 mm 0.00 W/m2
07:14 3.3 °C -2 °C 1017.5 hPa Calm     68% 0 mm 5.00 W/m2
07:19 3.4 °C -1.7 °C 1017.5 hPa Calm     69% 0 mm 7.00 W/m2
07:24 3.5 °C -1.7 °C 1017.8 hPa Calm   1.6 km/h 69% 0 mm 9.00 W/m2
07:29 3.6 °C -1.6 °C 1017.8 hPa Calm   1.6 km/h 69% 0 mm 11.00 W/m2
07:34 3.7 °C -1.5 °C 1017.8 hPa Calm     69% 0 mm 12.00 W/m2
07:39 3.7 °C -1.3 °C 1017.8 hPa Calm     70% 0 mm 12.00 W/m2
07:44 3.8 °C -1.4 °C 1017.8 hPa Calm     69% 0 mm 14.00 W/m2
07:49 3.9 °C -2.3 °C 1018.2 hPa Calm     64% 0 mm 16.00 W/m2
07:54 3.9 °C -2.5 °C 1018.2 hPa Calm     63% 0 mm 16.00 W/m2
07:59 3.9 °C -2.7 °C 1018.2 hPa Calm     62% 0 mm 18.00 W/m2
08:04 3.9 °C -2.5 °C 1018.2 hPa Calm     63% 0 mm 19.00 W/m2
08:09 4.2 °C -1.6 °C 1018.5 hPa Calm     66% 0 mm 19.00 W/m2
08:14 4.6 °C -1.6 °C 1018.5 hPa Calm     64% 0 mm 21.00 W/m2
08:19 4.8 °C -1.2 °C 1018.2 hPa Calm   1.6 km/h 65% 0 mm 21.00 W/m2
08:24 5.2 °C 0 °C 1018.5 hPa Calm   8 km/h 69% 0 mm 21.00 W/m2
08:29 5.8 °C 0.8 °C 1018.5 hPa NNE 3.2 km/h 12.9 km/h 70% 0 mm 23.00 W/m2
08:34 6.4 °C 0.9 °C 1018.5 hPa NNE 6.4 km/h 9.7 km/h 68% 0 mm 23.00 W/m2
08:39 7.1 °C 1 °C 1018.5 hPa NE 1.4 km/h 3.2 km/h 65% 0 mm 23.00 W/m2
08:44 7.5 °C 1.1 °C 1018.5 hPa Calm   6.4 km/h 64% 0 mm 25.00 W/m2
08:49 8 °C 0.9 °C 1018.5 hPa Calm   8 km/h 61% 0 mm 25.00 W/m2
08:54 8.4 °C 0.8 °C 1018.5 hPa ENE 1.4 km/h 6.4 km/h 59% 0 mm 39.00 W/m2
08:59 8.9 °C 0.8 °C 1018.5 hPa NE 11.3 km/h 11.3 km/h 57% 0 mm 26.00 W/m2
09:04 9.3 °C 0.7 °C 1018.8 hPa East 3.2 km/h 9.7 km/h 55% 0 mm 26.00 W/m2
09:09 9.7 °C 0.6 °C 1018.8 hPa Calm   14.5 km/h 53% 0 mm 32.00 W/m2
09:14 10.1 °C 0.4 °C 1018.8 hPa NNE 6.4 km/h 8 km/h 51% 0 mm 28.00 W/m2
09:19 10.4 °C 0.4 °C 1018.8 hPa NNE 11.1 km/h 14.5 km/h 50% 0 mm 28.00 W/m2
09:24 10.7 °C -0.2 °C 1018.8 hPa Calm   16.1 km/h 47% 0 mm 30.00 W/m2
09:29 10.8 °C 0.2 °C 1018.8 hPa Calm   17.7 km/h 48% 0 mm 30.00 W/m2
09:34 11.1 °C 0.5 °C 1018.8 hPa NE 7.9 km/h 16.1 km/h 48% 0 mm 81.00 W/m2
09:39 11.3 °C 0.7 °C 1018.8 hPa ENE 6.4 km/h 14.5 km/h 48% 0 mm 522.00 W/m2
09:44 11.8 °C 0.6 °C 1018.8 hPa NE 3.2 km/h 12.9 km/h 46% 0 mm 540.00 W/m2
09:49 12.2 °C 0.6 °C 1019.2 hPa North 3.2 km/h 12.9 km/h 45% 0 mm 555.00 W/m2
09:54 12.5 °C 0.9 °C 1019.2 hPa ENE 4.7 km/h 14.5 km/h 45% 0 mm 573.00 W/m2
Olympia, Windhoek, Namibia
Compliments of Weather Underground - 2.5 mb